»·PEaware :: N453WA UHMM-UHPP

N453WA :: UHMM-UHPP

FLIGHT INFORMATION

Flight Status: Arrived
Operator: Privately registered:
United States
More flights under this callsign
Pilot: Steve K. (2395)
Aircraft: DEHAVILLAND DH-6 TWIN OTTER
(DHC6)
More flights by this aircraft type
Origin: UHMM Sokol
Russian Federation
Destination: UHPP Yelizovo
Russian Federation
More flights between these airports :: More routes between these airports
Route: DIRECT
File this flight plan on PilotEdge
Remarks:
Altitude:
(Current/Filed)
17,000ft
Speed:
(Current/Filed)
150kts
Departed: 14-Feb-16 06:04 AM
Arrived: 14-Feb-16 09:02 AM
Distance/Time
Traveled:
483nm/2:58
Distance/Time
To Go:
Arrived

Flight Plot

Page will automatically refresh every two minutes.


Map Options




Map Legend


Flown Route
Filed Route
Departure Airport
Arrival Airport
Navaid (VOR, NDB)
Fix

Horizontal Profiles

Position Reports

Time Latitude Longitude Heading Altitude Ground
Speed
14-Feb-16 05:55 59.912833 150.726257 359 578ft 0kts
14-Feb-16 05:56 59.911499 150.726210 184 578ft 9kts
14-Feb-16 05:57 59.910920 150.723760 269 578ft 17kts
14-Feb-16 05:58 59.910854 150.727403 92 578ft 85kts
14-Feb-16 05:59 59.897472 150.781959 132 1567ft 133kts
14-Feb-16 06:00 59.870778 150.833644 137 2934ft 136kts
14-Feb-16 06:01 59.841068 150.880733 143 4433ft 138kts
14-Feb-16 06:02 59.810326 150.921561 147 6159ft 127kts
14-Feb-16 06:03 59.780878 150.955377 150 7954ft 120kts
14-Feb-16 06:04 59.751454 150.979675 169 9744ft 114kts
14-Feb-16 06:05 59.723073 151.000063 152 11488ft 108kts
14-Feb-16 06:06 59.696737 151.030692 146 13092ft 113kts
14-Feb-16 06:07 59.668870 151.067641 145 14529ft 127kts
14-Feb-16 06:08 59.642048 151.112919 100 15919ft 131kts
14-Feb-16 06:09 59.617025 151.158611 151 16981ft 151kts
14-Feb-16 06:10 59.574456 151.207605 149 16990ft 192kts
14-Feb-16 06:11 59.527508 151.263708 149 16986ft 196kts
14-Feb-16 06:12 59.480538 151.307862 146 16985ft 186kts
14-Feb-16 06:13 59.437203 151.362065 148 16987ft 184kts
14-Feb-16 06:14 59.393704 151.414332 148 16987ft 183kts
14-Feb-16 06:15 59.350033 151.466368 148 16987ft 183kts
14-Feb-16 06:16 59.306422 151.518139 148 16987ft 183kts
14-Feb-16 06:17 59.262844 151.569709 148 16987ft 183kts
14-Feb-16 06:18 59.219296 151.621088 148 16987ft 183kts
14-Feb-16 06:19 59.175679 151.672392 148 16987ft 183kts
14-Feb-16 06:20 59.132108 151.723488 148 16987ft 183kts
14-Feb-16 06:21 59.088375 151.774620 148 16987ft 183kts
14-Feb-16 06:22 59.044714 151.825516 148 16987ft 183kts
14-Feb-16 06:23 59.000971 151.876354 148 16987ft 183kts
14-Feb-16 06:24 58.957303 151.926954 148 16987ft 183kts
14-Feb-16 06:25 58.913551 151.977500 148 16987ft 183kts
14-Feb-16 06:26 58.869856 152.027829 148 16987ft 183kts
14-Feb-16 06:27 58.826245 152.077915 148 16987ft 182kts
14-Feb-16 06:28 58.782917 152.128047 149 16987ft 181kts
14-Feb-16 06:29 58.739665 152.177746 149 16987ft 181kts
14-Feb-16 06:30 58.696333 152.227117 149 16987ft 181kts
14-Feb-16 06:31 58.653011 152.276295 149 16987ft 181kts
14-Feb-16 06:32 58.609632 152.325388 149 16987ft 181kts
14-Feb-16 06:33 58.566256 152.374334 149 16987ft 181kts
14-Feb-16 06:34 58.522797 152.423232 149 16987ft 181kts
14-Feb-16 06:35 58.479437 152.471877 149 16987ft 181kts
14-Feb-16 06:36 58.435982 152.520488 149 16987ft 181kts
14-Feb-16 06:37 58.392610 152.568868 149 16987ft 181kts
14-Feb-16 06:38 58.349021 152.617349 149 16987ft 181kts
14-Feb-16 06:39 58.305558 152.665551 149 16987ft 181kts
14-Feb-16 06:40 58.262001 152.713718 149 16987ft 181kts
14-Feb-16 06:41 58.218587 152.761590 149 16987ft 181kts
14-Feb-16 06:42 58.175027 152.809486 149 16987ft 181kts
14-Feb-16 06:43 58.131382 152.857338 149 16987ft 181kts
14-Feb-16 06:44 58.087741 152.905049 149 16987ft 181kts
14-Feb-16 06:45 58.044129 152.952593 149 16987ft 181kts
14-Feb-16 06:46 58.000603 152.999909 149 16987ft 181kts
14-Feb-16 06:47 57.956845 153.047341 149 16987ft 181kts
14-Feb-16 06:48 57.920547 153.086585 149 16987ft 181kts
14-Feb-16 06:49 57.876941 153.134200 150 16987ft 181kts
14-Feb-16 06:50 57.833273 153.181378 150 16987ft 181kts
14-Feb-16 06:51 57.789501 153.228344 150 16987ft 181kts
14-Feb-16 06:52 57.745737 153.275142 150 16987ft 181kts
14-Feb-16 06:53 57.701925 153.321858 150 16987ft 181kts
14-Feb-16 06:54 57.658189 153.368360 150 16987ft 181kts
14-Feb-16 06:55 57.614335 153.414857 150 16987ft 181kts
14-Feb-16 06:56 57.570499 153.461207 150 16987ft 181kts
14-Feb-16 06:57 57.526637 153.507453 150 16987ft 181kts
14-Feb-16 06:58 57.482798 153.553546 150 16987ft 181kts
14-Feb-16 06:59 57.438971 153.599501 150 16987ft 181kts
14-Feb-16 07:00 57.395048 153.645427 150 16987ft 181kts
14-Feb-16 07:01 57.351107 153.691246 150 16987ft 181kts
14-Feb-16 07:02 57.307135 153.736970 150 16987ft 181kts
14-Feb-16 07:03 57.263152 153.782578 150 16987ft 181kts
14-Feb-16 07:04 57.219169 153.828061 150 16987ft 181kts
14-Feb-16 07:05 57.175181 153.873425 150 16987ft 181kts
14-Feb-16 07:06 57.131190 153.918666 150 16987ft 181kts
14-Feb-16 07:07 57.087055 153.963932 150 16987ft 181kts
14-Feb-16 07:08 57.043014 154.008977 150 16987ft 181kts
14-Feb-16 07:09 56.999023 154.053848 150 16987ft 181kts
14-Feb-16 07:10 56.954852 154.098780 150 16987ft 181kts
14-Feb-16 07:11 56.910906 154.144025 151 16987ft 181kts
14-Feb-16 07:12 56.866882 154.188690 151 16987ft 181kts
14-Feb-16 07:13 56.822687 154.233298 151 16987ft 181kts
14-Feb-16 07:14 56.778606 154.277655 151 16987ft 181kts
14-Feb-16 07:15 56.734355 154.322059 151 16987ft 181kts
14-Feb-16 07:16 56.690107 154.366341 151 16987ft 181kts
14-Feb-16 07:17 56.645888 154.410474 151 16987ft 181kts
14-Feb-16 07:18 56.601565 154.454592 151 16961ft 182kts
14-Feb-16 07:19 56.557028 154.498805 151 16903ft 183kts
14-Feb-16 07:20 56.511964 154.543423 151 16820ft 184kts
14-Feb-16 07:21 56.466866 154.587954 151 16745ft 184kts
14-Feb-16 07:22 56.422389 154.631753 151 16744ft 181kts
14-Feb-16 07:23 56.378041 154.675305 151 16744ft 181kts
14-Feb-16 07:24 56.333837 154.718598 151 16744ft 180kts
14-Feb-16 07:25 56.289669 154.761741 151 16744ft 180kts
14-Feb-16 07:26 56.245493 154.804778 151 16744ft 180kts
14-Feb-16 07:27 56.201330 154.847688 151 16744ft 180kts
14-Feb-16 07:28 56.157237 154.890417 151 16744ft 180kts
14-Feb-16 07:29 56.112851 154.933319 151 16744ft 180kts
14-Feb-16 07:30 56.068643 154.975934 151 16744ft 180kts
14-Feb-16 07:31 56.024466 155.018409 151 16744ft 180kts
14-Feb-16 07:32 55.980134 155.060921 151 16744ft 180kts
14-Feb-16 07:33 55.935924 155.103221 152 16744ft 180kts
14-Feb-16 07:34 55.891828 155.145929 152 16744ft 180kts
14-Feb-16 07:35 55.847476 155.188227 152 16744ft 180kts
14-Feb-16 07:36 55.803188 155.230268 152 16744ft 180kts
14-Feb-16 07:37 55.758861 155.272227 152 16744ft 180kts
14-Feb-16 07:38 55.714552 155.314057 152 16744ft 180kts
14-Feb-16 07:39 55.669988 155.356019 152 16744ft 180kts
14-Feb-16 07:40 55.625743 155.397572 152 16744ft 180kts
14-Feb-16 07:41 55.581198 155.439300 152 16744ft 180kts
14-Feb-16 07:42 55.536792 155.480791 152 16744ft 180kts
14-Feb-16 07:43 55.492393 155.522168 152 16744ft 180kts
14-Feb-16 07:44 55.447956 155.563474 152 16744ft 180kts
14-Feb-16 07:45 55.403489 155.604704 152 16744ft 180kts
14-Feb-16 07:46 55.359044 155.645807 152 16744ft 180kts
14-Feb-16 07:47 55.314523 155.686876 152 16744ft 180kts
14-Feb-16 07:48 55.270011 155.727831 152 16744ft 180kts
14-Feb-16 07:49 55.225393 155.768780 152 16744ft 180kts
14-Feb-16 07:50 55.180856 155.809551 152 16744ft 180kts
14-Feb-16 07:51 55.136074 155.850440 152 16717ft 181kts
14-Feb-16 07:52 55.091421 155.891109 152 16717ft 181kts
14-Feb-16 07:53 55.046744 155.931697 152 16717ft 181kts
14-Feb-16 07:54 55.009569 155.965391 152 16717ft 181kts
14-Feb-16 07:55 54.964865 156.005815 152 16717ft 181kts
14-Feb-16 07:56 54.920226 156.046081 152 16717ft 181kts
14-Feb-16 07:57 54.875591 156.086240 152 16717ft 181kts
14-Feb-16 07:58 54.830985 156.126760 152 16717ft 181kts
14-Feb-16 07:59 54.786380 156.166908 153 16717ft 181kts
14-Feb-16 08:00 54.741563 156.206959 153 16717ft 181kts
14-Feb-16 08:01 54.696888 156.246757 153 16717ft 181kts
14-Feb-16 08:02 54.652185 156.286477 153 16717ft 181kts
14-Feb-16 08:03 54.607298 156.326261 153 16717ft 181kts
14-Feb-16 08:04 54.562568 156.365806 153 16717ft 181kts
14-Feb-16 08:05 54.517786 156.405300 153 16717ft 181kts
14-Feb-16 08:06 54.473048 156.444658 153 16717ft 181kts
14-Feb-16 08:07 54.428170 156.484041 153 16717ft 181kts
14-Feb-16 08:08 54.383425 156.523211 153 16717ft 181kts
14-Feb-16 08:09 54.338527 156.562418 153 16717ft 181kts
14-Feb-16 08:10 54.293628 156.601530 153 16717ft 181kts
14-Feb-16 08:11 54.248913 156.640385 153 16717ft 181kts
14-Feb-16 08:12 54.204011 156.679308 153 16717ft 181kts
14-Feb-16 08:13 54.159038 156.718197 153 16717ft 181kts
14-Feb-16 08:14 54.114060 156.756995 153 16717ft 181kts
14-Feb-16 08:15 54.069126 156.795660 153 16717ft 181kts
14-Feb-16 08:16 54.024220 156.834208 153 16717ft 181kts
14-Feb-16 08:17 53.979265 156.872703 153 16717ft 181kts
14-Feb-16 08:18 53.934200 156.911200 153 16717ft 181kts
14-Feb-16 08:19 53.889187 156.949558 153 16717ft 181kts
14-Feb-16 08:20 53.845229 156.990323 128 16708ft 181kts
14-Feb-16 08:21 53.814220 157.057405 127 16717ft 181kts
14-Feb-16 08:22 53.783873 157.125102 127 16717ft 181kts
14-Feb-16 08:23 53.753444 157.193136 127 16717ft 181kts
14-Feb-16 08:24 53.722904 157.260797 127 16717ft 181kts
14-Feb-16 08:25 53.692296 157.328364 127 16717ft 181kts
14-Feb-16 08:26 53.661642 157.395844 127 16717ft 181kts
14-Feb-16 08:27 53.630906 157.463319 127 16717ft 181kts
14-Feb-16 08:28 53.600270 157.530396 127 16717ft 181kts
14-Feb-16 08:29 53.569158 157.598311 127 16371ft 190kts
14-Feb-16 08:30 53.535927 157.670644 127 15378ft 199kts
14-Feb-16 08:31 53.501845 157.744623 127 14376ft 200kts
14-Feb-16 08:32 53.467375 157.817932 128 13374ft 200kts
14-Feb-16 08:33 53.433178 157.890769 128 12374ft 198kts
14-Feb-16 08:34 53.399014 157.963133 128 11372ft 197kts
14-Feb-16 08:35 53.366471 158.031873 127 10998ft 173kts
14-Feb-16 08:36 53.337833 158.092224 127 11000ft 160kts
14-Feb-16 08:37 53.310617 158.149893 128 11001ft 156kts
14-Feb-16 08:38 53.283489 158.206816 128 11003ft 159kts
14-Feb-16 08:39 53.255187 158.266015 128 11002ft 164kts
14-Feb-16 08:40 53.226408 158.326077 128 11001ft 166kts
14-Feb-16 08:41 53.197482 158.386302 128 11001ft 166kts
14-Feb-16 08:42 53.168497 158.446505 128 11001ft 166kts
14-Feb-16 08:43 53.139417 158.506762 128 11001ft 166kts
14-Feb-16 08:44 53.110330 158.566889 128 11001ft 166kts
14-Feb-16 08:45 53.081282 158.626794 128 11001ft 166kts
14-Feb-16 08:46 53.052118 158.686793 128 11001ft 166kts
14-Feb-16 08:47 53.022962 158.746633 128 11001ft 166kts
14-Feb-16 08:48 52.988190 158.768954 233 10610ft 169kts
14-Feb-16 08:49 52.994980 158.690045 271 9092ft 185kts
14-Feb-16 08:50 52.992657 158.612797 267 7444ft 154kts
14-Feb-16 08:51 53.016569 158.562583 330 5076ft 135kts
14-Feb-16 08:52 53.044812 158.545595 342 2813ft 136kts
14-Feb-16 08:53 53.076410 158.523890 337 1706ft 122kts
14-Feb-16 08:54 53.107782 158.500215 336 1093ft 124kts
14-Feb-16 08:55 53.139125 158.476538 336 493ft 121kts
14-Feb-16 08:56 53.157119 158.462891 344 133ft 0kts
14-Feb-16 08:57 53.157119 158.462891 344 133ft 0kts
14-Feb-16 08:58 53.157119 158.462891 344 133ft 0kts
14-Feb-16 08:59 53.166712 158.481323 110 526ft 150kts
14-Feb-16 09:00 53.162011 158.548865 89 2210ft 146kts
14-Feb-16 09:01 53.162946 158.616377 86 3909ft 146kts
14-Feb-16 09:02 53.164849 158.677824 85 5955ft 123kts
14-Feb-16 09:03 53.166676 158.730679 85 7936ft 113kts

Navigation Log

Ident Type
Flight plan parsing failed, navigation log unavailable